createdAt,value
2022-11-05T00:00:28.061Z,12
2022-11-05T00:01:28.172Z,12
2022-11-05T00:02:28.065Z,12
2022-11-05T00:03:28.121Z,11
2022-11-05T00:04:30.884Z,10
2022-11-05T00:07:28.099Z,12
2022-11-05T00:08:28.060Z,11
2022-11-05T00:09:28.065Z,12
2022-11-05T00:10:28.101Z,11
2022-11-05T00:11:28.065Z,10
2022-11-05T00:12:28.091Z,11
2022-11-05T00:14:28.071Z,10
2022-11-05T00:15:28.073Z,9
2022-11-05T00:16:28.066Z,12
2022-11-05T00:17:28.060Z,10
2022-11-05T00:18:28.063Z,10
2022-11-05T00:19:28.066Z,8
2022-11-05T00:20:28.065Z,9
2022-11-05T00:21:28.074Z,10
2022-11-05T00:22:28.062Z,10
2022-11-05T00:23:28.058Z,9
2022-11-05T00:24:28.074Z,10
2022-11-05T00:25:28.073Z,9
2022-11-05T00:26:28.080Z,11
2022-11-05T00:27:28.063Z,8
2022-11-05T00:28:28.065Z,9
2022-11-05T00:29:28.068Z,8
2022-11-05T00:30:28.067Z,9
2022-11-05T00:32:28.081Z,12
2022-11-05T00:33:28.067Z,9
2022-11-05T00:34:28.106Z,10
2022-11-05T00:35:28.070Z,9
2022-11-05T00:36:28.059Z,10
2022-11-05T00:37:28.078Z,10
2022-11-05T00:38:28.076Z,8
2022-11-05T00:39:28.076Z,11
2022-11-05T00:40:28.084Z,9
2022-11-05T00:41:28.092Z,10
2022-11-05T00:43:28.068Z,8
2022-11-05T00:44:28.103Z,10
2022-11-05T00:45:28.068Z,10
2022-11-05T00:46:28.065Z,9
2022-11-05T00:47:28.070Z,10
2022-11-05T00:49:28.069Z,8
2022-11-05T00:51:28.098Z,10
2022-11-05T00:52:28.068Z,11
2022-11-05T00:53:28.084Z,12
2022-11-05T00:54:28.086Z,13
2022-11-05T00:55:28.067Z,14
2022-11-05T00:56:28.070Z,16
2022-11-05T00:57:28.072Z,13
2022-11-05T00:58:28.077Z,14
2022-11-05T01:00:28.062Z,13
2022-11-05T01:03:28.068Z,13
2022-11-05T01:04:28.076Z,13
2022-11-05T01:05:28.082Z,13
2022-11-05T01:06:28.075Z,14
2022-11-05T01:07:28.067Z,10
2022-11-05T01:08:28.068Z,11
2022-11-05T01:09:28.064Z,10
2022-11-05T01:10:28.067Z,10
2022-11-05T01:11:28.062Z,12
2022-11-05T01:12:28.195Z,13
2022-11-05T01:13:28.063Z,11
2022-11-05T01:14:28.070Z,11
2022-11-05T01:15:28.066Z,10
2022-11-05T01:16:28.071Z,11
2022-11-05T01:17:28.075Z,13
2022-11-05T01:19:28.099Z,11
2022-11-05T01:20:28.083Z,12
2022-11-05T01:22:28.068Z,11
2022-11-05T01:24:28.066Z,11
2022-11-05T01:25:28.068Z,14
2022-11-05T01:26:28.078Z,12
2022-11-05T01:27:28.073Z,11
2022-11-05T01:28:28.103Z,12
2022-11-05T01:29:28.072Z,12
2022-11-05T01:30:28.077Z,11
2022-11-05T01:31:28.092Z,10
2022-11-05T01:32:28.083Z,11
2022-11-05T01:33:28.067Z,11
2022-11-05T01:34:28.108Z,10
2022-11-05T01:35:28.067Z,12
2022-11-05T01:36:28.067Z,10
2022-11-05T01:37:28.073Z,12
2022-11-05T01:38:28.075Z,12
2022-11-05T01:39:28.071Z,13
2022-11-05T01:40:28.069Z,11
2022-11-05T01:41:28.076Z,11
2022-11-05T01:42:28.083Z,12
2022-11-05T01:43:28.180Z,11
2022-11-05T01:44:28.075Z,10
2022-11-05T01:45:28.078Z,12
2022-11-05T01:46:28.075Z,10
2022-11-05T01:47:28.082Z,11
2022-11-05T01:48:28.065Z,13
2022-11-05T01:49:28.076Z,14
2022-11-05T01:50:28.078Z,12
2022-11-05T01:51:28.077Z,11
2022-11-05T01:52:28.072Z,11
2022-11-05T01:53:28.084Z,12
2022-11-05T01:54:28.076Z,11
2022-11-05T01:55:28.087Z,10
2022-11-05T01:56:28.080Z,11
2022-11-05T01:57:28.077Z,12
2022-11-05T01:58:28.102Z,13
2022-11-05T01:59:28.067Z,9
2022-11-05T02:00:28.091Z,11
2022-11-05T02:01:28.262Z,10
2022-11-05T02:02:28.150Z,13
2022-11-05T02:03:28.082Z,14
2022-11-05T02:04:28.075Z,10
2022-11-05T02:05:28.074Z,13
2022-11-05T02:06:28.102Z,10
2022-11-05T02:07:28.095Z,11
2022-11-05T02:08:28.072Z,13
2022-11-05T02:09:28.079Z,11
2022-11-05T02:10:28.079Z,12
2022-11-05T02:11:28.078Z,12
2022-11-05T02:12:28.075Z,11
2022-11-05T02:13:28.071Z,11
2022-11-05T02:14:28.099Z,9
2022-11-05T02:15:28.078Z,11
2022-11-05T02:16:28.071Z,10
2022-11-05T02:17:28.088Z,12
2022-11-05T02:18:28.099Z,12
2022-11-05T02:19:28.079Z,11
2022-11-05T02:20:28.072Z,10
2022-11-05T02:21:28.077Z,11
2022-11-05T02:22:28.080Z,10
2022-11-05T02:23:28.075Z,12
2022-11-05T02:24:28.075Z,12
2022-11-05T02:25:28.075Z,12
2022-11-05T02:26:28.081Z,12
2022-11-05T02:27:28.077Z,12
2022-11-05T02:28:28.071Z,12
2022-11-05T02:29:28.079Z,11
2022-11-05T02:30:28.093Z,12
2022-11-05T02:31:28.075Z,13
2022-11-05T02:32:28.080Z,12
2022-11-05T02:33:28.075Z,11
2022-11-05T02:34:28.078Z,13
2022-11-05T02:35:28.074Z,11
2022-11-05T02:36:28.090Z,13
2022-11-05T02:38:28.078Z,13
2022-11-05T02:39:28.078Z,10
2022-11-05T02:40:28.075Z,10
2022-11-05T02:41:28.090Z,12
2022-11-05T02:42:28.076Z,11
2022-11-05T02:43:28.239Z,11
2022-11-05T02:44:28.084Z,10
2022-11-05T02:46:28.106Z,12
2022-11-05T02:47:28.074Z,11
2022-11-05T02:48:28.083Z,12
2022-11-05T02:49:28.079Z,12
2022-11-05T02:51:28.142Z,12
2022-11-05T02:52:28.080Z,13
2022-11-05T02:53:28.080Z,10
2022-11-05T02:54:28.083Z,10
2022-11-05T02:55:28.079Z,11
2022-11-05T02:56:28.091Z,12
2022-11-05T02:57:28.075Z,12
2022-11-05T02:59:28.076Z,11
2022-11-05T03:00:28.150Z,10
2022-11-05T03:01:28.328Z,12
2022-11-05T03:02:28.196Z,13
2022-11-05T03:03:28.079Z,13
2022-11-05T03:04:28.100Z,11
2022-11-05T03:05:28.082Z,14
2022-11-05T03:06:28.093Z,16
2022-11-05T03:07:28.075Z,18
2022-11-05T03:08:28.076Z,15
2022-11-05T03:09:28.081Z,12
2022-11-05T03:10:28.081Z,15
2022-11-05T03:11:28.078Z,12
2022-11-05T03:12:28.083Z,11
2022-11-05T03:13:28.088Z,12
2022-11-05T03:15:28.083Z,16
2022-11-05T03:16:28.079Z,14
2022-11-05T03:17:28.076Z,11
2022-11-05T03:18:28.076Z,14
2022-11-05T03:19:28.096Z,15
2022-11-05T03:20:28.071Z,12
2022-11-05T03:21:28.088Z,14
2022-11-05T03:22:28.071Z,14
2022-11-05T03:23:28.073Z,15
2022-11-05T03:24:28.081Z,17
2022-11-05T03:25:28.084Z,12
2022-11-05T03:26:28.079Z,12
2022-11-05T03:27:28.089Z,15
2022-11-05T03:28:28.076Z,13
2022-11-05T03:29:28.077Z,13
2022-11-05T03:30:28.076Z,19
2022-11-05T03:31:28.112Z,14
2022-11-05T03:32:28.099Z,16
2022-11-05T03:33:28.081Z,17
2022-11-05T03:34:28.100Z,16
2022-11-05T03:35:28.077Z,17
2022-11-05T03:36:28.084Z,16
2022-11-05T03:37:28.079Z,16
2022-11-05T03:38:28.080Z,15
2022-11-05T03:39:28.084Z,16
2022-11-05T03:40:28.071Z,15
2022-11-05T03:41:28.100Z,18
2022-11-05T03:42:28.092Z,18
2022-11-05T03:44:28.080Z,15
2022-11-05T03:45:28.088Z,15
2022-11-05T03:46:28.087Z,19
2022-11-05T03:47:28.083Z,16
2022-11-05T03:48:29.228Z,14
2022-11-05T03:49:28.083Z,15
2022-11-05T03:50:28.076Z,21
2022-11-05T03:51:28.078Z,17
2022-11-05T03:52:28.101Z,18
2022-11-05T03:53:28.074Z,17
2022-11-05T03:54:28.092Z,14
2022-11-05T03:55:28.083Z,13
2022-11-05T03:56:28.095Z,14
2022-11-05T03:57:28.131Z,14
2022-11-05T03:58:28.081Z,14
2022-11-05T04:00:28.088Z,12
2022-11-05T04:01:28.247Z,13
2022-11-05T04:02:28.226Z,17
2022-11-05T04:03:28.106Z,13
2022-11-05T04:04:28.081Z,16
2022-11-05T04:05:28.094Z,13
2022-11-05T04:06:28.079Z,15
2022-11-05T04:07:28.074Z,13
2022-11-05T04:08:28.078Z,14
2022-11-05T04:09:28.105Z,15
2022-11-05T04:11:28.084Z,13
2022-11-05T04:14:28.108Z,15
2022-11-05T04:15:28.084Z,14
2022-11-05T04:16:28.074Z,13
2022-11-05T04:17:28.092Z,15
2022-11-05T04:18:28.079Z,12
2022-11-05T04:20:28.082Z,13
2022-11-05T04:21:28.095Z,11
2022-11-05T04:22:28.092Z,13
2022-11-05T04:23:28.079Z,16
2022-11-05T04:24:28.091Z,12
2022-11-05T04:25:28.111Z,14
2022-11-05T04:26:28.086Z,13
2022-11-05T04:27:28.103Z,14
2022-11-05T04:28:28.086Z,13
2022-11-05T04:29:28.083Z,13
2022-11-05T04:30:28.081Z,14
2022-11-05T04:31:28.089Z,11
2022-11-05T04:32:28.083Z,15
2022-11-05T04:34:28.325Z,13
2022-11-05T04:35:28.078Z,14
2022-11-05T04:36:28.082Z,16
2022-11-05T04:37:29.225Z,16
2022-11-05T04:38:28.084Z,15
2022-11-05T04:39:28.085Z,14
2022-11-05T04:40:28.088Z,13
2022-11-05T04:41:28.121Z,13
2022-11-05T04:42:28.086Z,15
2022-11-05T04:43:28.078Z,16
2022-11-05T04:44:28.076Z,14
2022-11-05T04:45:28.077Z,13
2022-11-05T04:47:28.079Z,12
2022-11-05T04:48:28.087Z,15
2022-11-05T04:49:28.090Z,14
2022-11-05T04:50:28.079Z,12
2022-11-05T04:51:28.082Z,14
2022-11-05T04:52:28.080Z,14
2022-11-05T04:53:28.084Z,14
2022-11-05T04:54:28.093Z,15
2022-11-05T04:55:28.079Z,12
2022-11-05T04:56:28.092Z,14
2022-11-05T04:57:28.083Z,14
2022-11-05T04:58:28.077Z,13
2022-11-05T04:59:28.083Z,12
2022-11-05T05:00:28.186Z,14
2022-11-05T05:01:28.218Z,16
2022-11-05T05:02:28.081Z,16
2022-11-05T05:03:28.080Z,14
2022-11-05T05:04:28.078Z,12
2022-11-05T05:05:28.110Z,16
2022-11-05T05:07:28.083Z,12
2022-11-05T05:08:28.077Z,11
2022-11-05T05:09:28.088Z,14
2022-11-05T05:10:28.088Z,14
2022-11-05T05:11:28.089Z,12
2022-11-05T05:12:28.080Z,14
2022-11-05T05:13:28.081Z,14
2022-11-05T05:14:28.078Z,15
2022-11-05T05:15:28.086Z,13
2022-11-05T05:16:28.081Z,12
2022-11-05T05:17:28.076Z,13
2022-11-05T05:18:28.086Z,15
2022-11-05T05:19:28.084Z,12
2022-11-05T05:20:28.080Z,12
2022-11-05T05:21:28.077Z,14
2022-11-05T05:22:28.087Z,14
2022-11-05T05:23:28.088Z,12
2022-11-05T05:24:28.079Z,13
2022-11-05T05:25:28.088Z,17
2022-11-05T05:26:28.080Z,14
2022-11-05T05:27:28.088Z,15
2022-11-05T05:28:28.088Z,14
2022-11-05T05:30:28.095Z,12
2022-11-05T05:31:28.085Z,11
2022-11-05T05:32:28.092Z,12
2022-11-05T05:33:28.092Z,15
2022-11-05T05:34:28.092Z,13
2022-11-05T05:35:28.094Z,15
2022-11-05T05:37:28.088Z,12
2022-11-05T05:38:28.080Z,12
2022-11-05T05:40:28.081Z,14
2022-11-05T05:41:28.082Z,13
2022-11-05T05:43:28.137Z,15
2022-11-05T05:44:28.089Z,15
2022-11-05T05:45:28.089Z,14
2022-11-05T05:46:28.096Z,13
2022-11-05T05:48:29.203Z,12
2022-11-05T05:49:28.087Z,16
2022-11-05T05:50:28.080Z,16
2022-11-05T05:51:28.084Z,15
2022-11-05T05:52:28.102Z,15
2022-11-05T05:53:28.084Z,14
2022-11-05T05:54:32.649Z,16
2022-11-05T05:55:28.087Z,17
2022-11-05T05:56:28.103Z,15
2022-11-05T05:57:28.081Z,16
2022-11-05T05:58:28.080Z,16
2022-11-05T05:59:28.087Z,15
2022-11-05T06:00:28.089Z,15
2022-11-05T06:01:28.114Z,16
2022-11-05T06:03:28.091Z,16
2022-11-05T06:04:28.083Z,16
2022-11-05T06:05:28.084Z,18
2022-11-05T06:07:31.783Z,21
2022-11-05T06:08:28.079Z,18
2022-11-05T06:09:28.087Z,17
2022-11-05T06:10:28.146Z,17
2022-11-05T06:11:28.085Z,19
2022-11-05T06:12:28.072Z,17
2022-11-05T06:13:28.095Z,17
2022-11-05T06:14:28.086Z,18
2022-11-05T06:15:31.797Z,18
2022-11-05T06:16:28.090Z,19
2022-11-05T06:17:28.083Z,18
2022-11-05T06:18:28.084Z,18
2022-11-05T06:19:28.087Z,19
2022-11-05T06:20:28.093Z,20
2022-11-05T06:21:28.084Z,19
2022-11-05T06:22:28.088Z,18
2022-11-05T06:23:28.087Z,20
2022-11-05T06:24:28.093Z,17
2022-11-05T06:25:28.166Z,18
2022-11-05T06:26:28.092Z,18
2022-11-05T06:27:28.078Z,21
2022-11-05T06:28:28.077Z,19
2022-11-05T06:29:28.904Z,18
2022-11-05T06:30:28.083Z,16
2022-11-05T06:31:28.106Z,17
2022-11-05T06:32:28.085Z,22
2022-11-05T06:34:28.087Z,21
2022-11-05T06:36:28.081Z,17
2022-11-05T06:37:28.094Z,19
2022-11-05T06:38:28.201Z,19
2022-11-05T06:39:28.081Z,20
2022-11-05T06:40:28.087Z,18
2022-11-05T06:41:28.101Z,21
2022-11-05T06:42:28.074Z,19
2022-11-05T06:43:28.084Z,21
2022-11-05T06:44:28.078Z,17
2022-11-05T06:45:28.079Z,19
2022-11-05T06:46:28.085Z,20
2022-11-05T06:47:28.083Z,21
2022-11-05T06:48:28.084Z,18
2022-11-05T06:49:28.080Z,17
2022-11-05T06:50:28.078Z,19
2022-11-05T06:51:28.107Z,13
2022-11-05T06:52:28.084Z,19
2022-11-05T06:53:28.082Z,20
2022-11-05T06:54:28.089Z,20
2022-11-05T06:56:28.081Z,23
2022-11-05T06:58:28.084Z,22
2022-11-05T06:59:28.076Z,21
2022-11-05T07:00:28.085Z,23
2022-11-05T07:01:28.242Z,19
2022-11-05T07:02:28.162Z,14
2022-11-05T07:03:28.137Z,19
2022-11-05T07:04:28.096Z,16
2022-11-05T07:05:28.083Z,22
2022-11-05T07:06:29.426Z,21
2022-11-05T07:07:28.083Z,20
2022-11-05T07:08:28.095Z,23
2022-11-05T07:09:28.119Z,14
2022-11-05T07:10:28.086Z,22
2022-11-05T07:11:28.078Z,15
2022-11-05T07:12:28.086Z,22
2022-11-05T07:13:28.088Z,17
2022-11-05T07:14:28.079Z,25
2022-11-05T07:15:28.089Z,17
2022-11-05T07:16:28.084Z,24
2022-11-05T07:17:28.085Z,24
2022-11-05T07:18:28.086Z,21
2022-11-05T07:19:28.086Z,16
2022-11-05T07:20:33.205Z,19
2022-11-05T07:21:28.090Z,21
2022-11-05T07:22:28.084Z,22
2022-11-05T07:23:28.167Z,14
2022-11-05T07:24:28.127Z,17
2022-11-05T07:25:28.087Z,19
2022-11-05T07:26:33.399Z,17
2022-11-05T07:27:28.091Z,14
2022-11-05T07:28:28.089Z,18
2022-11-05T07:29:28.081Z,14
2022-11-05T07:30:28.237Z,18
2022-11-05T07:31:28.092Z,17
2022-11-05T07:32:28.078Z,18
2022-11-05T07:33:32.329Z,14
2022-11-05T07:34:28.088Z,14
2022-11-05T07:35:28.080Z,19
2022-11-05T07:37:28.091Z,13
2022-11-05T07:38:28.085Z,17
2022-11-05T07:39:28.082Z,16
2022-11-05T07:40:28.226Z,13
2022-11-05T07:41:28.106Z,17
2022-11-05T07:42:28.086Z,15
2022-11-05T07:45:28.199Z,15
2022-11-05T07:46:28.078Z,15
2022-11-05T07:47:28.087Z,15
2022-11-05T07:48:28.080Z,16
2022-11-05T07:49:28.097Z,18
2022-11-05T07:50:28.232Z,13
2022-11-05T07:51:28.081Z,16
2022-11-05T07:52:28.088Z,16
2022-11-05T07:53:28.087Z,14
2022-11-05T07:54:28.082Z,14
2022-11-05T07:55:28.084Z,17
2022-11-05T07:56:28.120Z,14
2022-11-05T07:57:28.079Z,15
2022-11-05T07:58:28.078Z,16
2022-11-05T07:59:28.088Z,13
2022-11-05T08:00:28.085Z,16
2022-11-05T08:01:28.292Z,13
2022-11-05T08:02:28.289Z,14
2022-11-05T08:03:28.242Z,13
2022-11-05T08:04:28.100Z,14
2022-11-05T08:05:28.096Z,14
2022-11-05T08:06:28.086Z,16
2022-11-05T08:07:28.089Z,15
2022-11-05T08:08:28.082Z,18
2022-11-05T08:09:28.092Z,15
2022-11-05T08:10:28.095Z,13
2022-11-05T08:11:28.117Z,16
2022-11-05T08:12:28.127Z,17
2022-11-05T08:13:28.088Z,15
2022-11-05T08:14:28.089Z,14
2022-11-05T08:15:28.093Z,15
2022-11-05T08:16:28.092Z,14
2022-11-05T08:17:28.100Z,14
2022-11-05T08:18:28.086Z,15
2022-11-05T08:19:28.087Z,14
2022-11-05T08:22:28.164Z,17
2022-11-05T08:23:28.078Z,17
2022-11-05T08:24:28.107Z,16
2022-11-05T08:25:28.156Z,16
2022-11-05T08:26:28.185Z,17
2022-11-05T08:27:28.086Z,17
2022-11-05T08:28:28.108Z,16
2022-11-05T08:29:28.083Z,17
2022-11-05T08:30:28.088Z,17
2022-11-05T08:32:28.082Z,15
2022-11-05T08:33:28.090Z,15
2022-11-05T08:35:28.478Z,17
2022-11-05T08:37:28.100Z,16
2022-11-05T08:39:28.081Z,17
2022-11-05T08:40:28.107Z,16
2022-11-05T08:41:28.091Z,15
2022-11-05T08:42:28.104Z,14
2022-11-05T08:43:28.086Z,17
2022-11-05T08:44:28.096Z,15
2022-11-05T08:45:28.091Z,15
2022-11-05T08:46:28.092Z,16
2022-11-05T08:47:28.094Z,15
2022-11-05T08:48:28.086Z,14
2022-11-05T08:49:28.088Z,13
2022-11-05T08:50:28.088Z,13
2022-11-05T08:51:28.093Z,14
2022-11-05T08:53:28.081Z,13
2022-11-05T08:54:28.092Z,15
2022-11-05T08:55:28.090Z,17
2022-11-05T08:56:28.084Z,15
2022-11-05T08:58:28.085Z,15
2022-11-05T08:59:28.094Z,13
2022-11-05T09:00:28.089Z,13
2022-11-05T09:01:28.187Z,15
2022-11-05T09:02:28.209Z,17
2022-11-05T09:04:28.087Z,14
2022-11-05T09:05:28.090Z,14
2022-11-05T09:06:28.092Z,17
2022-11-05T09:07:28.087Z,17
2022-11-05T09:08:28.090Z,11
2022-11-05T09:09:28.106Z,14
2022-11-05T09:10:28.109Z,13
2022-11-05T09:11:43.280Z,14
2022-11-05T09:12:28.084Z,14
2022-11-05T09:13:28.220Z,14
2022-11-05T09:16:28.088Z,12
2022-11-05T09:17:28.084Z,12
2022-11-05T09:18:28.086Z,11
2022-11-05T09:19:28.093Z,15
2022-11-05T09:20:28.088Z,13
2022-11-05T09:21:28.092Z,13
2022-11-05T09:22:28.098Z,13
2022-11-05T09:23:28.087Z,13
2022-11-05T09:24:28.109Z,13
2022-11-05T09:25:28.100Z,13
2022-11-05T09:26:28.093Z,12
2022-11-05T09:27:28.084Z,14
2022-11-05T09:28:28.091Z,12
2022-11-05T09:29:28.089Z,14
2022-11-05T09:30:28.090Z,12
2022-11-05T09:32:28.092Z,14
2022-11-05T09:33:28.112Z,14
2022-11-05T09:34:28.087Z,12
2022-11-05T09:35:28.098Z,15
2022-11-05T09:36:28.094Z,10
2022-11-05T09:37:28.087Z,14
2022-11-05T09:38:28.096Z,12
2022-11-05T09:39:28.094Z,14
2022-11-05T09:40:28.097Z,11
2022-11-05T09:41:28.097Z,11
2022-11-05T09:42:28.095Z,12
2022-11-05T09:43:31.747Z,10
2022-11-05T09:44:28.202Z,11
2022-11-05T09:45:28.121Z,13
2022-11-05T09:46:28.089Z,11
2022-11-05T09:47:28.094Z,12
2022-11-05T09:48:28.115Z,10
2022-11-05T09:49:28.092Z,12
2022-11-05T09:50:28.088Z,12
2022-11-05T09:51:28.509Z,9
2022-11-05T09:52:28.101Z,10
2022-11-05T09:53:28.089Z,11
2022-11-05T09:54:28.102Z,11
2022-11-05T09:55:28.097Z,10
2022-11-05T09:56:28.100Z,11
2022-11-05T09:57:28.092Z,17
2022-11-05T09:58:28.857Z,12
2022-11-05T09:59:28.102Z,11
2022-11-05T10:00:28.099Z,11
2022-11-05T10:01:28.266Z,12
2022-11-05T10:02:28.213Z,10
2022-11-05T10:03:28.099Z,11
2022-11-05T10:04:28.102Z,10
2022-11-05T10:05:28.212Z,11
2022-11-05T10:06:28.089Z,11
2022-11-05T10:07:28.105Z,10
2022-11-05T10:08:28.087Z,9
2022-11-05T10:09:28.097Z,11
2022-11-05T10:10:28.121Z,10
2022-11-05T10:11:28.099Z,10
2022-11-05T10:12:28.097Z,9
2022-11-05T10:13:28.101Z,12
2022-11-05T10:14:28.098Z,11
2022-11-05T10:15:28.526Z,10
2022-11-05T10:16:28.090Z,8
2022-11-05T10:17:28.102Z,12
2022-11-05T10:19:28.131Z,11
2022-11-05T10:20:28.100Z,9
2022-11-05T10:21:59.576Z,8
2022-11-05T10:22:28.098Z,10
2022-11-05T10:23:28.100Z,8
2022-11-05T10:24:28.096Z,9
2022-11-05T10:25:28.126Z,8
2022-11-05T10:26:28.095Z,11
2022-11-05T10:27:28.113Z,9
2022-11-05T10:29:28.096Z,8
2022-11-05T10:30:28.124Z,9
2022-11-05T10:31:34.298Z,9
2022-11-05T10:32:28.101Z,9
2022-11-05T10:33:28.110Z,11
2022-11-05T10:34:28.100Z,11
2022-11-05T10:36:28.096Z,11
2022-11-05T10:37:28.100Z,9
2022-11-05T10:38:28.130Z,8
2022-11-05T10:39:28.101Z,8
2022-11-05T10:40:28.098Z,8
2022-11-05T10:41:28.101Z,9
2022-11-05T10:42:28.101Z,9
2022-11-05T10:43:28.110Z,9
2022-11-05T10:44:28.103Z,11
2022-11-05T10:45:28.101Z,9
2022-11-05T10:46:28.123Z,8
2022-11-05T10:47:28.100Z,10
2022-11-05T10:48:28.108Z,7
2022-11-05T10:49:28.109Z,11
2022-11-05T10:50:28.105Z,8
2022-11-05T10:51:28.096Z,10
2022-11-05T10:52:28.105Z,8
2022-11-05T10:53:28.121Z,9
2022-11-05T10:54:28.111Z,10
2022-11-05T10:55:28.099Z,7
2022-11-05T10:57:28.104Z,8
2022-11-05T10:58:28.094Z,8
2022-11-05T10:59:28.113Z,9
2022-11-05T11:00:28.106Z,10
2022-11-05T11:01:28.279Z,10
2022-11-05T11:02:28.134Z,10
2022-11-05T11:03:28.102Z,7
2022-11-05T11:04:29.587Z,8
2022-11-05T11:05:28.105Z,8
2022-11-05T11:06:28.098Z,8
2022-11-05T11:07:28.101Z,8
2022-11-05T11:08:28.105Z,9
2022-11-05T11:09:28.109Z,8
2022-11-05T11:10:28.109Z,9
2022-11-05T11:11:28.093Z,7
2022-11-05T11:12:28.113Z,8
2022-11-05T11:13:28.108Z,9
2022-11-05T11:15:28.112Z,7
2022-11-05T11:16:28.144Z,8
2022-11-05T11:17:28.228Z,9
2022-11-05T11:18:28.115Z,8
2022-11-05T11:19:28.111Z,11
2022-11-05T11:20:28.103Z,9
2022-11-05T11:21:28.116Z,9
2022-11-05T11:22:28.115Z,10
2022-11-05T11:23:28.105Z,10
2022-11-05T11:24:33.310Z,8
2022-11-05T11:25:28.105Z,8
2022-11-05T11:26:28.125Z,9
2022-11-05T11:27:28.134Z,11
2022-11-05T11:28:28.104Z,10
2022-11-05T11:29:28.109Z,8
2022-11-05T11:30:28.106Z,7
2022-11-05T11:31:28.109Z,8
2022-11-05T11:32:28.104Z,10
2022-11-05T11:33:28.121Z,8
2022-11-05T11:34:28.109Z,8
2022-11-05T11:35:28.113Z,8
2022-11-05T11:36:28.102Z,9
2022-11-05T11:37:28.102Z,9
2022-11-05T11:38:28.102Z,8
2022-11-05T11:39:28.112Z,9
2022-11-05T11:40:28.110Z,8
2022-11-05T11:42:28.116Z,12
2022-11-05T11:43:28.118Z,9
2022-11-05T11:44:28.107Z,9
2022-11-05T11:45:28.118Z,9
2022-11-05T11:46:28.110Z,9
2022-11-05T11:47:28.107Z,8
2022-11-05T11:48:28.140Z,8
2022-11-05T11:49:28.125Z,8
2022-11-05T11:50:28.114Z,9
2022-11-05T11:51:28.118Z,8
2022-11-05T11:52:28.108Z,7
2022-11-05T11:53:28.113Z,8
2022-11-05T11:54:29.222Z,7
2022-11-05T11:55:28.116Z,8
2022-11-05T11:56:28.116Z,11
2022-11-05T11:57:28.123Z,10
2022-11-05T11:58:28.110Z,10
2022-11-05T11:59:53.963Z,8
2022-11-05T12:00:28.108Z,10
2022-11-05T12:01:28.209Z,8
2022-11-05T12:02:28.155Z,8
2022-11-05T12:04:28.123Z,9
2022-11-05T12:05:28.108Z,8
2022-11-05T12:06:28.114Z,7
2022-11-05T12:07:28.113Z,9
2022-11-05T12:08:28.110Z,10
2022-11-05T12:09:28.113Z,10
2022-11-05T12:10:28.120Z,9
2022-11-05T12:11:28.128Z,8
2022-11-05T12:12:28.112Z,8
2022-11-05T12:13:28.106Z,8
2022-11-05T12:15:28.119Z,9
2022-11-05T12:16:28.119Z,8
2022-11-05T12:17:28.110Z,10
2022-11-05T12:18:28.129Z,11
2022-11-05T12:19:28.225Z,6
2022-11-05T12:20:28.109Z,7
2022-11-05T12:21:48.135Z,9
2022-11-05T12:23:28.121Z,10
2022-11-05T12:24:28.117Z,10
2022-11-05T12:25:28.117Z,8
2022-11-05T12:26:28.105Z,10
2022-11-05T12:27:28.118Z,10
2022-11-05T12:28:28.176Z,9
2022-11-05T12:29:34.488Z,8
2022-11-05T12:30:28.111Z,9
2022-11-05T12:31:28.112Z,11
2022-11-05T12:32:28.172Z,8
2022-11-05T12:33:28.120Z,10
2022-11-05T12:34:28.111Z,8
2022-11-05T12:36:28.113Z,12
2022-11-05T12:37:28.115Z,8
2022-11-05T12:38:28.118Z,8
2022-11-05T12:39:28.112Z,11
2022-11-05T12:40:28.117Z,9
2022-11-05T12:41:28.119Z,9
2022-11-05T12:42:28.126Z,10
2022-11-05T12:43:28.132Z,8
2022-11-05T12:45:28.114Z,8
2022-11-05T12:46:28.116Z,8
2022-11-05T12:47:28.127Z,9
2022-11-05T12:48:32.786Z,8
2022-11-05T12:49:28.121Z,12
2022-11-05T12:50:28.138Z,8
2022-11-05T12:52:28.118Z,7
2022-11-05T12:53:28.182Z,9
2022-11-05T12:54:28.118Z,9
2022-11-05T12:57:28.112Z,7
2022-11-05T12:58:28.118Z,7
2022-11-05T12:59:28.119Z,8
2022-11-05T13:00:28.118Z,10
2022-11-05T13:01:28.228Z,13
2022-11-05T13:02:28.218Z,7
2022-11-05T13:03:28.118Z,10
2022-11-05T13:04:28.168Z,14
2022-11-05T13:05:28.120Z,31
2022-11-05T13:06:28.115Z,7
2022-11-05T13:07:28.122Z,7
2022-11-05T13:08:28.126Z,10
2022-11-05T13:10:28.141Z,7
2022-11-05T13:11:28.118Z,11
2022-11-05T13:12:28.117Z,7
2022-11-05T13:14:28.126Z,8
2022-11-05T13:15:28.127Z,7
2022-11-05T13:16:28.120Z,7
2022-11-05T13:17:28.120Z,7
2022-11-05T13:18:28.120Z,7
2022-11-05T13:19:28.128Z,8
2022-11-05T13:20:28.128Z,8
2022-11-05T13:21:28.138Z,9
2022-11-05T13:22:28.126Z,9
2022-11-05T13:23:28.121Z,9
2022-11-05T13:24:28.123Z,6
2022-11-05T13:25:28.121Z,7
2022-11-05T13:26:28.121Z,6
2022-11-05T13:27:28.123Z,8
2022-11-05T13:28:28.119Z,9
2022-11-05T13:29:28.118Z,12
2022-11-05T13:31:28.126Z,8
2022-11-05T13:32:28.111Z,7
2022-11-05T13:35:28.123Z,9
2022-11-05T13:37:28.120Z,8
2022-11-05T13:38:28.120Z,6
2022-11-05T13:40:28.121Z,7
2022-11-05T13:41:28.114Z,8
2022-11-05T13:42:28.122Z,8
2022-11-05T13:43:28.133Z,7
2022-11-05T13:44:28.120Z,6
2022-11-05T13:45:28.117Z,7
2022-11-05T13:46:28.119Z,8
2022-11-05T13:47:28.116Z,8
2022-11-05T13:48:28.119Z,11
2022-11-05T13:49:28.425Z,8
2022-11-05T13:50:28.126Z,6
2022-11-05T13:52:28.140Z,8
2022-11-05T13:53:28.129Z,8
2022-11-05T13:55:28.121Z,6
2022-11-05T13:56:28.120Z,8
2022-11-05T13:57:28.117Z,8
2022-11-05T13:58:28.119Z,7
2022-11-05T13:59:28.128Z,7
2022-11-05T14:01:28.240Z,6
2022-11-05T14:02:28.216Z,6
2022-11-05T14:03:28.182Z,6
2022-11-05T14:04:28.128Z,6
2022-11-05T14:05:28.129Z,7
2022-11-05T14:06:28.124Z,9
2022-11-05T14:07:28.117Z,7
2022-11-05T14:08:28.121Z,6
2022-11-05T14:09:28.114Z,7
2022-11-05T14:10:28.130Z,7
2022-11-05T14:11:28.121Z,6
2022-11-05T14:13:28.134Z,7
2022-11-05T14:14:28.123Z,7
2022-11-05T14:15:28.128Z,6
2022-11-05T14:16:28.124Z,7
2022-11-05T14:17:28.130Z,9
2022-11-05T14:19:28.122Z,5
2022-11-05T14:20:28.124Z,7
2022-11-05T14:21:28.122Z,8
2022-11-05T14:22:28.148Z,7
2022-11-05T14:24:28.142Z,6
2022-11-05T14:25:28.117Z,5
2022-11-05T14:26:28.117Z,10
2022-11-05T14:27:28.126Z,6
2022-11-05T14:28:28.126Z,6
2022-11-05T14:29:28.124Z,6
2022-11-05T14:30:28.137Z,6
2022-11-05T14:31:47.193Z,6
2022-11-05T14:32:28.118Z,5
2022-11-05T14:33:28.128Z,4
2022-11-05T14:34:28.130Z,6
2022-11-05T14:35:28.130Z,5
2022-11-05T14:36:28.120Z,4
2022-11-05T14:37:28.125Z,6
2022-11-05T14:38:28.129Z,7
2022-11-05T14:39:28.130Z,6
2022-11-05T14:40:28.122Z,5
2022-11-05T14:41:28.126Z,6
2022-11-05T14:43:28.122Z,5
2022-11-05T14:45:28.127Z,8
2022-11-05T14:46:28.149Z,6
2022-11-05T14:47:28.127Z,5
2022-11-05T14:48:28.136Z,6
2022-11-05T14:50:28.172Z,6
2022-11-05T14:51:28.124Z,5
2022-11-05T14:52:28.124Z,5
2022-11-05T14:53:28.127Z,5
2022-11-05T14:54:28.147Z,6
2022-11-05T14:55:28.141Z,6
2022-11-05T14:56:28.127Z,6
2022-11-05T14:57:28.124Z,5
2022-11-05T14:58:28.132Z,6
2022-11-05T14:59:28.136Z,5
2022-11-05T15:00:28.133Z,6
2022-11-05T15:01:28.261Z,6
2022-11-05T15:02:28.191Z,6
2022-11-05T15:03:28.232Z,9
2022-11-05T15:04:28.182Z,6
2022-11-05T15:05:28.122Z,6
2022-11-05T15:06:28.164Z,7
2022-11-05T15:07:28.134Z,8
2022-11-05T15:08:28.134Z,8
2022-11-05T15:09:28.130Z,8
2022-11-05T15:11:28.133Z,5
2022-11-05T15:12:28.122Z,5
2022-11-05T15:13:28.131Z,6
2022-11-05T15:14:28.129Z,5
2022-11-05T15:15:28.130Z,6
2022-11-05T15:16:28.126Z,9
2022-11-05T15:17:28.134Z,5
2022-11-05T15:18:28.129Z,5
2022-11-05T15:19:28.132Z,6
2022-11-05T15:20:28.131Z,6
2022-11-05T15:21:28.128Z,9
2022-11-05T15:22:28.126Z,6
2022-11-05T15:23:28.130Z,6
2022-11-05T15:24:28.155Z,6
2022-11-05T15:25:28.148Z,8
2022-11-05T15:26:28.139Z,4
2022-11-05T15:28:28.132Z,6
2022-11-05T15:29:28.159Z,6
2022-11-05T15:31:28.142Z,7
2022-11-05T15:32:28.163Z,7
2022-11-05T15:33:28.178Z,6
2022-11-05T15:34:28.197Z,6
2022-11-05T15:35:28.153Z,6
2022-11-05T15:36:28.130Z,11
2022-11-05T15:37:28.132Z,5
2022-11-05T15:38:28.191Z,6
2022-11-05T15:39:29.714Z,6
2022-11-05T15:40:28.130Z,6
2022-11-05T15:41:28.209Z,6
2022-11-05T15:42:28.122Z,6
2022-11-05T15:43:28.129Z,8
2022-11-05T15:44:28.135Z,8
2022-11-05T15:45:28.131Z,9
2022-11-05T15:46:28.129Z,5
2022-11-05T15:47:28.132Z,6
2022-11-05T15:48:28.133Z,7
2022-11-05T15:49:28.133Z,5
2022-11-05T15:50:28.136Z,8
2022-11-05T15:51:28.130Z,6